Time;durP1;ratioP1;P1;durP2;ratioP2;P2;SDS_P1;SDS_P2;PMS_P1;PMS_P2;Temp;Humidity;BMP_temperature;BMP_pressure;BME280_temperature;BME280_humidity;BME280_pressure;Samples;Min_cycle;Max_cycle;Signal;HPM_P1;HPM_P2
2024/01/20 00:01:35;;;;;;;21.00;4.40;;;;;;;-2.35;88.00;100891.95;108409;1266;22574;-76
2024/01/20 00:04:25;;;;;;;21.80;3.60;;;;;;;-2.38;88.09;100893.71;108467;1266;22647;-76
2024/01/20 00:07:16;;;;;;;24.30;4.00;;;;;;;-2.40;87.97;100897.67;108438;1260;24364;-75
2024/01/20 00:10:10;;;;;;;28.30;4.10;;;;;;;-2.44;88.01;100893.10;108317;1266;25500;-76
2024/01/20 00:13:01;;;;;;;26.10;5.60;;;;;;;-2.47;87.95;100899.80;108307;1267;24321;-76
2024/01/20 00:15:52;;;;;;;20.20;4.00;;;;;;;-2.48;87.98;100899.33;108342;1268;26203;-75
2024/01/20 00:18:42;;;;;;;22.70;4.20;;;;;;;-2.48;87.86;100899.70;108230;1268;24663;-75
2024/01/20 00:21:31;;;;;;;;;;;;;;;-2.51;88.07;100903.05;108310;1266;22498;-74
2024/01/20 00:24:22;;;;;;;23.60;5.00;;;;;;;-2.53;87.92;100902.00;108339;1266;22680;-75
2024/01/20 00:27:13;;;;;;;26.80;5.30;;;;;;;-2.57;87.82;100905.64;108297;1268;22560;-75
2024/01/20 00:30:04;;;;;;;;;;;;;;;-2.63;87.80;100904.01;108269;1268;25195;-75
2024/01/20 00:32:54;;;;;;;30.00;6.40;;;;;;;-2.70;87.73;100900.95;108458;1266;25256;-75
2024/01/20 00:35:45;;;;;;;32.20;7.00;;;;;;;-2.78;87.74;100903.52;108438;1260;24183;-75
2024/01/20 00:38:39;;;;;;;27.70;7.20;;;;;;;-2.82;87.72;100907.29;108285;1256;23658;-75
2024/01/20 00:41:29;;;;;;;31.70;7.20;;;;;;;-2.86;87.86;100908.96;108480;1267;22597;-75
2024/01/20 00:44:21;;;;;;;32.50;7.80;;;;;;;-2.88;87.82;100912.52;108477;1260;25484;-75
2024/01/20 00:47:12;;;;;;;36.30;8.10;;;;;;;-2.90;87.82;100911.73;108364;1266;24106;-75
2024/01/20 00:50:04;;;;;;;36.80;10.50;;;;;;;-2.92;87.85;100916.95;108474;1260;25488;-75
2024/01/20 00:52:55;;;;;;;34.90;9.30;;;;;;;-2.92;87.99;100911.39;108425;1266;24221;-75
2024/01/20 00:55:44;;;;;;;;;;;;;;;-2.93;87.90;100917.24;108176;1267;22495;-76
2024/01/20 00:58:35;;;;;;;33.60;7.00;;;;;;;-2.95;87.72;100917.42;108325;1260;22723;-75
2024/01/20 01:01:26;;;;;;;34.20;7.70;;;;;;;-2.96;87.65;100918.20;108359;1267;22570;-77
2024/01/20 01:04:17;;;;;;;32.20;7.20;;;;;;;-3.02;87.50;100918.29;108234;1260;22707;-74
2024/01/20 01:07:08;;;;;;;31.90;8.80;;;;;;;-3.04;87.59;100922.31;108255;1266;24304;-75
2024/01/20 01:09:59;;;;;;;29.80;8.00;;;;;;;-3.08;87.41;100918.92;108182;1268;23900;-76
2024/01/20 01:12:50;;;;;;;27.40;7.40;;;;;;;-3.08;87.62;100921.02;108219;1268;22689;-78
2024/01/20 01:15:39;;;;;;;;;;;;;;;-3.09;87.62;100920.70;108422;1268;24388;-74
2024/01/20 01:18:30;;;;;;;31.20;8.10;;;;;;;-3.12;87.50;100923.64;108421;1266;27849;-76
2024/01/20 01:21:20;;;;;;;39.70;9.30;;;;;;;-3.14;87.29;100921.39;108194;1268;25424;-75
2024/01/20 01:24:11;;;;;;;23.60;6.30;;;;;;;-3.20;86.97;100923.05;108210;1268;22934;-76
2024/01/20 01:27:02;;;;;;;27.10;7.50;;;;;;;-3.25;86.93;100918.45;108208;1261;24330;-76
2024/01/20 01:29:53;;;;;;;31.90;7.40;;;;;;;-3.35;86.62;100923.77;108348;1266;22921;-75
2024/01/20 01:32:44;;;;;;;27.70;7.00;;;;;;;-3.42;86.75;100922.81;108093;1266;22664;-76
2024/01/20 01:35:35;;;;;;;40.40;8.90;;;;;;;-3.47;86.91;100923.06;108243;1267;22633;-76
2024/01/20 01:38:26;;;;;;;27.70;7.70;;;;;;;-3.52;86.79;100923.37;108167;1268;22813;-76
2024/01/20 01:41:19;;;;;;;27.00;6.50;;;;;;;-3.56;86.76;100920.89;108207;1268;22874;-75
2024/01/20 01:44:10;;;;;;;29.50;7.40;;;;;;;-3.61;86.84;100921.91;108267;1259;25647;-75
2024/01/20 01:47:01;;;;;;;30.50;6.60;;;;;;;-3.65;86.85;100925.92;108442;1263;24234;-77
2024/01/20 01:49:52;;;;;;;27.10;7.80;;;;;;;-3.70;86.78;100930.96;108636;1266;24170;-79
2024/01/20 01:52:43;;;;;;;28.10;8.10;;;;;;;-3.77;86.89;100929.31;108424;1266;23405;-78
2024/01/20 01:55:35;;;;;;;34.30;9.60;;;;;;;-3.75;87.31;100929.70;108415;1266;22805;-75
2024/01/20 01:58:27;;;;;;;27.80;8.00;;;;;;;-3.73;87.45;100930.85;108531;1261;22667;-76
2024/01/20 02:01:18;;;;;;;35.90;8.80;;;;;;;-3.70;87.37;100936.19;108403;1266;24512;-76
2024/01/20 02:04:08;;;;;;;34.40;8.10;;;;;;;-3.70;87.20;100941.64;108479;1266;22658;-75
2024/01/20 02:06:59;;;;;;;29.40;8.50;;;;;;;-3.69;87.28;100944.78;108319;1268;22560;-76
2024/01/20 02:09:50;;;;;;;31.20;8.00;;;;;;;-3.68;87.12;100944.63;108253;1268;22557;-75
2024/01/20 02:12:42;;;;;;;32.30;8.40;;;;;;;-3.69;87.07;100947.45;108118;1244;23222;-75
2024/01/20 02:15:34;;;;;;;24.70;6.60;;;;;;;-3.69;86.95;100953.66;108458;1263;22942;-75
2024/01/20 02:18:25;;;;;;;26.90;6.40;;;;;;;-3.73;86.80;100961.80;108741;1260;26751;-75
2024/01/20 02:21:14;;;;;;;;;;;;;;;-3.74;87.07;100960.84;108424;1267;22945;-75
2024/01/20 02:24:08;;;;;;;31.60;8.10;;;;;;;-3.74;87.41;100961.62;108370;1266;24327;-75
2024/01/20 02:27:00;;;;;;;33.00;7.30;;;;;;;-3.72;87.47;100957.13;108411;1267;22646;-75
2024/01/20 02:29:51;;;;;;;28.50;8.00;;;;;;;-3.73;87.36;100956.27;108365;1263;22568;-76
2024/01/20 02:32:42;;;;;;;31.50;7.60;;;;;;;-3.74;87.21;100964.36;108405;1266;22666;-75
2024/01/20 02:35:33;;;;;;;34.40;7.90;;;;;;;-3.75;87.03;100966.06;108399;1266;24570;-78
2024/01/20 02:38:24;;;;;;;36.30;8.20;;;;;;;-3.76;86.87;100969.60;108430;1267;22742;-76
2024/01/20 02:41:15;;;;;;;31.90;8.00;;;;;;;-3.79;86.70;100962.63;108415;1263;22831;-75
2024/01/20 02:44:08;;;;;;;31.50;8.60;;;;;;;-3.82;86.59;100962.82;108366;1263;22623;-75
2024/01/20 02:46:59;;;;;;;25.30;6.50;;;;;;;-3.86;86.73;100971.02;108274;1267;22686;-75
2024/01/20 02:49:50;;;;;;;27.20;7.70;;;;;;;-3.94;86.49;100968.62;108411;1266;22721;-74
2024/01/20 02:52:41;;;;;;;25.20;6.50;;;;;;;-3.99;86.59;100966.82;108400;1266;22859;-75
2024/01/20 02:55:32;;;;;;;25.80;6.90;;;;;;;-4.03;86.86;100971.66;108345;1260;22661;-78
2024/01/20 02:58:23;;;;;;;30.80;6.20;;;;;;;-4.07;86.94;100978.52;108454;1266;22687;-76
2024/01/20 03:01:14;;;;;;;26.30;6.70;;;;;;;-4.09;87.02;100976.14;108300;1260;24076;-75
2024/01/20 03:04:05;;;;;;;22.10;6.30;;;;;;;-4.12;86.90;100978.35;108314;1267;22775;-81
2024/01/20 03:06:56;;;;;;;22.00;5.50;;;;;;;-4.16;86.98;100978.82;108288;1268;23559;-79
2024/01/20 03:09:47;;;;;;;29.90;7.30;;;;;;;-4.19;87.07;100979.17;108245;1267;25159;-74
2024/01/20 03:12:38;;;;;;;23.50;5.70;;;;;;;-4.19;87.34;100981.64;108322;1267;27834;-75
2024/01/20 03:15:29;;;;;;;22.50;5.90;;;;;;;-4.19;87.30;100985.02;108351;1266;23329;-75
2024/01/20 03:18:20;;;;;;;28.80;7.10;;;;;;;-4.21;86.97;100996.89;108403;1267;25065;-74
2024/01/20 03:21:11;;;;;;;26.40;5.80;;;;;;;-4.22;87.11;100994.69;108399;1266;22594;-76
2024/01/20 03:24:02;;;;;;;24.80;6.20;;;;;;;-4.23;87.02;100997.08;108350;1267;23434;-77
2024/01/20 03:26:54;;;;;;;23.30;6.40;;;;;;;-4.26;86.84;100992.11;108187;1267;22642;-75
2024/01/20 03:29:45;;;;;;;20.90;6.50;;;;;;;-4.27;86.94;100998.10;108333;1267;22555;-75
2024/01/20 03:32:37;;;;;;;31.20;9.70;;;;;;;-4.29;86.81;100996.34;108492;1267;24945;-76
2024/01/20 03:35:27;;;;;;;25.30;5.90;;;;;;;-4.32;86.61;100995.35;108484;1267;22576;-76
2024/01/20 03:38:19;;;;;;;22.40;6.50;;;;;;;-4.34;86.65;100993.44;108469;1266;23002;-76
2024/01/20 03:41:10;;;;;;;22.70;5.50;;;;;;;-4.37;86.78;100987.85;108358;1267;22806;-79
2024/01/20 03:44:01;;;;;;;17.90;4.80;;;;;;;-4.38;86.83;100985.80;108272;1267;25571;-78
2024/01/20 03:46:52;;;;;;;23.30;4.20;;;;;;;-4.41;86.60;100983.03;108209;1267;23236;-76
2024/01/20 03:49:43;;;;;;;25.60;5.80;;;;;;;-4.42;86.64;100979.66;108333;1267;22865;-77
2024/01/20 03:52:34;;;;;;;25.50;4.40;;;;;;;-4.43;86.62;100981.13;108459;1263;25464;-76
2024/01/20 03:55:25;;;;;;;22.40;5.40;;;;;;;-4.44;86.50;100985.06;108420;1260;22616;-75
2024/01/20 03:58:16;;;;;;;21.80;6.70;;;;;;;-4.45;86.55;100994.31;108526;1261;23246;-77
2024/01/20 04:01:06;;;;;;;;;;;;;;;-4.45;86.53;101001.23;108384;1260;25917;-80
2024/01/20 04:03:56;;;;;;;26.70;6.20;;;;;;;-4.45;86.73;101006.15;108151;1268;25515;-76
2024/01/20 04:06:47;;;;;;;26.00;6.10;;;;;;;-4.45;86.53;101014.63;108358;1266;22605;-75
2024/01/20 04:09:36;;;;;;;;;;;;;;;-4.47;86.53;101018.25;108352;1266;22499;-76
2024/01/20 04:12:27;;;;;;;20.10;4.50;;;;;;;-4.48;86.36;101023.52;108427;1267;24116;-76
2024/01/20 04:15:18;;;;;;;25.50;5.60;;;;;;;-4.51;86.20;101030.55;108367;1266;26940;-76
2024/01/20 04:18:09;;;;;;;22.50;4.20;;;;;;;-4.55;86.18;101030.94;108343;1263;22587;-76
2024/01/20 04:21:02;;;;;;;24.10;5.60;;;;;;;-4.60;86.15;101032.85;108364;1261;24604;-76
2024/01/20 04:23:53;;;;;;;20.50;4.80;;;;;;;-4.62;86.13;101038.64;108402;1263;25653;-76
2024/01/20 04:26:44;;;;;;;21.00;4.90;;;;;;;-4.65;86.14;101040.23;108472;1267;23946;-76
2024/01/20 04:29:35;;;;;;;19.40;4.90;;;;;;;-4.69;86.02;101041.62;108418;1267;25440;-78
2024/01/20 04:32:26;;;;;;;22.40;4.60;;;;;;;-4.73;86.04;101046.35;108528;1267;22786;-75
2024/01/20 04:35:17;;;;;;;26.80;5.80;;;;;;;-4.76;86.06;101044.91;108391;1267;25609;-79
2024/01/20 04:38:08;;;;;;;20.30;4.40;;;;;;;-4.77;86.09;101047.83;108178;1267;22563;-77
2024/01/20 04:40:59;;;;;;;22.50;4.90;;;;;;;-4.78;86.11;101043.70;108246;1264;22966;-75
2024/01/20 04:43:50;;;;;;;20.90;5.10;;;;;;;-4.78;86.07;101045.77;108412;1266;24346;-79
2024/01/20 04:46:41;;;;;;;21.00;4.50;;;;;;;-4.79;86.12;101047.25;108476;1263;23167;-77
2024/01/20 04:49:32;;;;;;;21.50;4.50;;;;;;;-4.77;86.27;101049.94;108415;1266;25545;-77
2024/01/20 04:52:23;;;;;;;21.00;4.70;;;;;;;-4.75;86.20;101051.92;108502;1267;25586;-76
2024/01/20 04:55:15;;;;;;;22.00;4.60;;;;;;;-4.73;86.07;101054.60;108389;1267;22753;-76
2024/01/20 04:58:06;;;;;;;26.30;5.90;;;;;;;-4.73;86.10;101057.50;108419;1266;22693;-79
2024/01/20 05:00:57;;;;;;;21.10;4.80;;;;;;;-4.73;85.87;101062.94;108174;1268;24228;-79
2024/01/20 05:03:46;;;;;;;;;;;;;;;-4.74;85.86;101068.14;108293;1268;22514;-75
2024/01/20 05:06:37;;;;;;;18.60;4.00;;;;;;;-4.75;85.90;101069.82;108352;1268;22749;-75
2024/01/20 05:09:28;;;;;;;19.90;4.60;;;;;;;-4.75;85.77;101077.05;108429;1267;24255;-77
2024/01/20 05:12:19;;;;;;;17.30;3.60;;;;;;;-4.74;85.83;101078.71;108562;1266;25543;-77
2024/01/20 05:15:12;;;;;;;22.40;4.40;;;;;;;-4.72;85.89;101079.23;108418;1266;25498;-76
2024/01/20 05:18:03;;;;;;;20.20;3.70;;;;;;;-4.67;86.17;101085.65;108406;1264;22691;-78
2024/01/20 05:20:54;;;;;;;22.50;4.10;;;;;;;-4.61;86.30;101086.31;108493;1266;22656;-76
2024/01/20 05:23:46;;;;;;;23.70;4.10;;;;;;;-4.57;86.36;101091.47;108410;1260;24257;-75
2024/01/20 05:26:38;;;;;;;14.90;3.80;;;;;;;-4.52;86.34;101092.13;108514;1263;22696;-76
2024/01/20 05:29:29;;;;;;;26.60;5.20;;;;;;;-4.45;86.62;101092.41;111643;1263;22234;-76
2024/01/20 05:32:20;;;;;;;23.00;4.90;;;;;;;-4.39;86.63;101088.73;111562;1267;22921;-76
2024/01/20 05:35:11;;;;;;;25.10;6.10;;;;;;;-4.32;86.64;101097.38;109308;1252;25508;-75
2024/01/20 05:38:02;;;;;;;30.80;6.20;;;;;;;-4.26;86.63;101100.45;108464;1267;24180;-75
2024/01/20 05:40:53;;;;;;;23.90;5.40;;;;;;;-4.19;86.70;101101.69;108450;1266;22624;-75
2024/01/20 05:43:42;;;;;;;;;;;;;;;-4.14;86.67;101101.48;108456;1264;22654;-78
2024/01/20 05:46:33;;;;;;;21.70;4.30;;;;;;;-4.10;86.76;101096.66;108502;1266;22702;-75
2024/01/20 05:49:24;;;;;;;18.00;3.60;;;;;;;-4.05;86.44;101103.92;108576;1266;22629;-75
2024/01/20 05:52:15;;;;;;;18.80;4.30;;;;;;;-4.03;86.33;101107.23;108546;1266;23129;-75
2024/01/20 05:55:07;;;;;;;19.20;3.60;;;;;;;-3.99;86.23;101108.78;108383;1261;22577;-74
2024/01/20 05:57:58;;;;;;;20.80;3.60;;;;;;;-3.98;86.01;101111.31;108330;1268;22901;-75
2024/01/20 06:00:47;;;;;;;;;;;;;;;-3.96;85.75;101116.48;108432;1268;22526;-78
2024/01/20 06:03:38;;;;;;;14.30;2.60;;;;;;;-3.95;85.70;101121.64;108370;1268;22661;-76
2024/01/20 06:06:29;;;;;;;15.00;3.10;;;;;;;-3.95;85.55;101119.23;108571;1267;22719;-76
2024/01/20 06:09:20;;;;;;;15.80;3.20;;;;;;;-3.95;85.42;101116.04;108353;1264;22755;-76
2024/01/20 06:12:12;;;;;;;14.70;2.90;;;;;;;-3.95;85.51;101116.58;108484;1267;22626;-77
2024/01/20 06:15:03;;;;;;;15.90;3.10;;;;;;;-3.94;85.44;101118.17;108510;1257;22712;-74
2024/01/20 06:17:54;;;;;;;13.60;2.10;;;;;;;-3.94;85.36;101118.48;108584;1267;26689;-75
2024/01/20 06:20:45;;;;;;;14.90;2.70;;;;;;;-3.91;85.43;101124.91;108551;1267;22614;-76
2024/01/20 06:23:37;;;;;;;13.70;3.20;;;;;;;-3.89;85.31;101131.49;108526;1266;22637;-75
2024/01/20 06:26:28;;;;;;;17.70;2.90;;;;;;;-3.88;85.24;101124.36;109039;1264;22941;-75
2024/01/20 06:29:19;;;;;;;15.50;2.60;;;;;;;-3.87;85.09;101124.13;108470;1266;22585;-75
2024/01/20 06:32:10;;;;;;;16.30;3.10;;;;;;;-3.88;84.95;101125.06;108479;1263;22660;-77
2024/01/20 06:35:01;;;;;;;19.70;3.20;;;;;;;-3.88;84.78;101128.95;108510;1266;24198;-75
2024/01/20 06:37:52;;;;;;;21.40;4.20;;;;;;;-3.90;84.72;101129.61;108452;1266;22658;-74
2024/01/20 06:40:43;;;;;;;21.30;4.10;;;;;;;-3.92;84.54;101133.09;108481;1266;26695;-73
2024/01/20 06:43:32;;;;;;;;;;;;;;;-3.92;84.48;101138.23;108528;1261;22708;-74
2024/01/20 06:46:23;;;;;;;19.40;3.90;;;;;;;-3.92;84.50;101133.16;108479;1244;22841;-75
2024/01/20 06:49:12;;;;;;;;;;;;;;;-3.91;84.57;101138.70;108522;1267;23122;-74
2024/01/20 06:52:03;;;;;;;19.10;2.90;;;;;;;-3.93;84.36;101138.91;108437;1267;22674;-74
2024/01/20 06:54:54;;;;;;;17.40;4.30;;;;;;;-3.94;84.57;101137.23;108258;1251;25596;-74
2024/01/20 06:57:45;;;;;;;18.40;3.90;;;;;;;-3.94;84.54;101139.89;108626;1267;22794;-73
2024/01/20 07:00:36;;;;;;;21.40;4.00;;;;;;;-3.93;84.56;101141.32;108454;1266;22596;-74
2024/01/20 07:03:27;;;;;;;19.60;4.40;;;;;;;-3.93;84.66;101144.67;108429;1264;22575;-74
2024/01/20 07:06:17;;;;;;;;;;;;;;;-3.93;84.54;101144.98;108594;1263;22704;-74
2024/01/20 07:09:09;;;;;;;19.40;4.60;;;;;;;-3.94;84.43;101146.98;108411;1265;25229;-73
2024/01/20 07:12:00;;;;;;;17.70;4.30;;;;;;;-3.96;84.35;101144.84;108609;1264;22783;-74
2024/01/20 07:14:51;;;;;;;21.40;5.30;;;;;;;-3.96;84.52;101140.78;108517;1267;24180;-73
2024/01/20 07:17:41;;;;;;;21.10;5.20;;;;;;;-3.95;84.61;101141.83;108340;1264;22694;-73
2024/01/20 07:20:32;;;;;;;27.20;7.10;;;;;;;-3.94;84.69;101143.02;108524;1267;23173;-74
2024/01/20 07:23:23;;;;;;;17.90;4.00;;;;;;;-3.91;84.87;101141.13;108432;1263;24593;-73
2024/01/20 07:26:15;;;;;;;33.20;6.20;;;;;;;-3.91;84.69;101144.55;108552;1264;22567;-73
2024/01/20 07:29:06;;;;;;;19.00;4.10;;;;;;;-3.90;84.49;101146.68;108332;1267;153205;-74
2024/01/20 07:31:57;;;;;;;20.40;4.70;;;;;;;-3.87;84.76;101146.29;108538;1264;22624;-73
2024/01/20 07:34:48;;;;;;;25.30;6.10;;;;;;;-3.84;84.78;101146.71;108396;1267;22678;-73
2024/01/20 07:37:41;;;;;;;22.30;5.80;;;;;;;-3.82;84.76;101146.61;108467;1261;24346;-73
2024/01/20 07:40:32;;;;;;;23.20;6.10;;;;;;;-3.80;84.94;101149.36;109302;1266;23425;-74
2024/01/20 07:43:23;;;;;;;23.60;7.20;;;;;;;-3.79;84.85;101150.40;108833;1266;22770;-73
2024/01/20 07:46:14;;;;;;;27.20;7.30;;;;;;;-3.79;84.69;101153.92;108756;1260;23997;-74
2024/01/20 07:49:05;;;;;;;28.50;6.30;;;;;;;-3.80;84.70;101156.15;108339;1261;22731;-75
2024/01/20 07:51:56;;;;;;;30.30;7.30;;;;;;;-3.80;84.66;101159.35;108549;1266;23755;-74
2024/01/20 07:54:47;;;;;;;28.10;6.60;;;;;;;-3.79;84.60;101167.40;108406;1268;23893;-74
2024/01/20 07:57:38;;;;;;;23.50;6.80;;;;;;;-3.80;84.61;101163.65;108378;1268;22755;-73
2024/01/20 08:00:29;;;;;;;26.40;6.30;;;;;;;-3.80;84.60;101166.84;109021;1266;22617;-73
2024/01/20 08:03:20;;;;;;;18.90;5.30;;;;;;;-3.80;84.53;101163.32;108327;1265;23184;-74
2024/01/20 08:06:11;;;;;;;21.50;5.70;;;;;;;-3.79;84.62;101171.53;108453;1267;22529;-74
2024/01/20 08:09:00;;;;;;;;;;;;;;;-3.77;84.71;101176.17;108597;1263;26643;-75
2024/01/20 08:11:51;;;;;;;22.50;5.40;;;;;;;-3.76;84.72;101178.84;108558;1267;23622;-74
2024/01/20 08:14:42;;;;;;;24.00;5.90;;;;;;;-3.74;84.88;101187.14;109099;1267;23237;-74
2024/01/20 08:17:33;;;;;;;29.90;6.90;;;;;;;-3.72;84.87;101190.53;108742;1261;22670;-73
2024/01/20 08:20:25;;;;;;;23.90;5.80;;;;;;;-3.68;85.01;101198.98;108684;1261;22747;-74
2024/01/20 08:23:16;;;;;;;20.10;4.40;;;;;;;-3.63;85.12;101204.67;108868;1263;24318;-75
2024/01/20 08:26:07;;;;;;;19.70;5.10;;;;;;;-3.57;85.15;101212.05;108424;1267;22604;-74
2024/01/20 08:28:58;;;;;;;18.10;3.70;;;;;;;-3.51;85.27;101219.80;108828;1244;23012;-74
2024/01/20 08:31:49;;;;;;;19.80;3.80;;;;;;;-3.43;85.45;101221.05;108705;1267;25147;-74
2024/01/20 08:34:40;;;;;;;19.60;4.30;;;;;;;-3.34;85.45;101226.68;108642;1261;25574;-74
2024/01/20 08:37:31;;;;;;;21.10;5.10;;;;;;;-3.27;85.43;101224.70;108407;1266;22776;-73
2024/01/20 08:40:23;;;;;;;22.50;6.10;;;;;;;-3.19;85.40;101223.92;108614;1266;24180;-73
2024/01/20 08:43:14;;;;;;;27.00;7.70;;;;;;;-3.11;85.53;101224.38;108407;1260;23881;-74
2024/01/20 08:46:06;;;;;;;23.10;6.00;;;;;;;-3.03;85.43;101225.85;108404;1267;22522;-73
2024/01/20 08:48:57;;;;;;;19.50;4.10;;;;;;;-2.95;85.34;101230.45;108343;1268;22889;-75
2024/01/20 08:51:48;;;;;;;19.80;4.50;;;;;;;-2.84;85.38;101231.88;108320;1268;22747;-75
2024/01/20 08:54:39;;;;;;;17.70;3.30;;;;;;;-2.70;85.47;101233.44;108491;1268;22608;-74
2024/01/20 08:57:32;;;;;;;20.40;4.20;;;;;;;-2.55;85.35;101244.09;108405;1260;23811;-75
2024/01/20 09:00:23;;;;;;;16.80;3.80;;;;;;;-2.40;85.04;101249.70;108769;1263;23797;-74
2024/01/20 09:03:15;;;;;;;19.80;4.90;;;;;;;-2.26;84.82;101248.98;108549;1264;22620;-74
2024/01/20 09:06:07;;;;;;;19.00;4.00;;;;;;;-2.12;84.87;101251.91;108492;1263;24342;-74
2024/01/20 09:08:58;;;;;;;16.40;3.70;;;;;;;-2.02;84.43;101247.93;111436;1263;22174;-74
2024/01/20 09:11:49;;;;;;;18.70;4.00;;;;;;;-1.94;83.93;101249.83;111628;1263;22183;-74
2024/01/20 09:14:40;;;;;;;20.00;3.90;;;;;;;-1.88;83.77;101252.19;111572;1261;22207;-74
2024/01/20 09:17:31;;;;;;;13.80;2.70;;;;;;;-1.80;83.62;101253.02;111605;1266;22117;-74
2024/01/20 09:20:21;;;;;;;;;;;;;;;-1.72;83.43;101259.44;111649;1260;22530;-74
2024/01/20 09:23:11;;;;;;;16.00;3.00;;;;;;;-1.63;83.25;101254.77;111614;1263;22105;-74
2024/01/20 09:26:02;;;;;;;15.90;3.90;;;;;;;-1.55;83.50;101258.00;111632;1267;22188;-75
2024/01/20 09:28:57;;;;;;;15.50;3.10;;;;;;;-1.49;83.50;101262.31;111613;1264;22201;-76
2024/01/20 09:31:54;;;;;;;18.00;2.20;;;;;;;-1.43;83.21;101264.11;111613;1260;22140;-74
2024/01/20 09:34:45;;;;;;;17.60;3.10;;;;;;;-1.39;82.78;101267.27;111608;1263;22125;-75
2024/01/20 09:37:36;;;;;;;19.20;3.90;;;;;;;-1.36;82.70;101270.22;111639;1260;22473;-74
2024/01/20 09:40:29;;;;;;;15.00;3.40;;;;;;;-1.33;82.64;101268.84;111587;1260;22970;-74
2024/01/20 09:43:22;;;;;;;14.10;2.80;;;;;;;-1.29;82.50;101265.29;111596;1266;22341;-74
2024/01/20 09:46:14;;;;;;;17.20;3.90;;;;;;;-1.24;81.89;101270.20;111616;1260;23030;-74
2024/01/20 09:49:05;;;;;;;15.80;2.80;;;;;;;-1.18;82.33;101269.73;111619;1266;22391;-77
2024/01/20 09:52:05;;;;;;;10.90;2.40;;;;;;;-1.13;82.40;101265.47;111491;1267;22246;-75
2024/01/20 09:55:14;;;;;;;12.60;1.80;;;;;;;-1.09;82.00;101265.67;111460;1268;22254;-74
2024/01/20 09:58:06;;;;;;;12.30;2.30;;;;;;;-1.05;81.58;101263.27;111505;1267;22148;-77
2024/01/20 10:00:57;;;;;;;9.90;2.10;;;;;;;-1.00;81.77;101260.13;111486;1268;22138;-74
2024/01/20 10:03:48;;;;;;;15.50;2.50;;;;;;;-0.97;81.82;101255.45;111490;1268;22898;-75
2024/01/20 10:06:39;;;;;;;14.40;2.60;;;;;;;-0.92;82.01;101256.92;111492;1268;22917;-74
2024/01/20 10:09:30;;;;;;;10.90;2.50;;;;;;;-0.88;81.93;101255.78;111619;1263;22394;-75
2024/01/20 10:12:21;;;;;;;12.00;1.90;;;;;;;-0.83;81.88;101257.08;111590;1266;22146;-75
2024/01/20 10:15:10;;;;;;;;;;;;;;;-0.79;81.80;101250.14;111638;1267;22436;-74
2024/01/20 10:18:06;;;;;;;10.30;2.00;;;;;;;-0.76;81.71;101249.31;111648;1263;22102;-74
2024/01/20 10:21:04;;;;;;;13.30;2.10;;;;;;;-0.73;81.53;101249.81;111629;1263;22097;-73
2024/01/20 10:23:55;;;;;;;12.40;1.40;;;;;;;-0.69;81.37;101244.29;111622;1263;22309;-74
2024/01/20 10:26:46;;;;;;;10.90;1.70;;;;;;;-0.66;81.25;101246.73;111609;1261;22117;-72
2024/01/20 10:29:37;;;;;;;13.80;2.20;;;;;;;-0.63;80.98;101247.23;111627;1266;22569;-76
2024/01/20 10:32:29;;;;;;;11.70;2.30;;;;;;;-0.60;81.00;101248.73;111640;1263;22359;-74
2024/01/20 10:35:20;;;;;;;9.70;1.60;;;;;;;-0.57;81.06;101245.64;111619;1261;22185;-73
2024/01/20 10:38:19;;;;;;;10.40;2.10;;;;;;;-0.54;80.91;101239.71;111610;1263;22149;-73
2024/01/20 10:41:14;;;;;;;13.80;2.30;;;;;;;-0.50;80.75;101240.45;111498;1266;22221;-74
2024/01/20 10:44:08;;;;;;;12.90;1.60;;;;;;;-0.46;80.44;101248.39;111630;1260;22867;-74
2024/01/20 10:47:05;;;;;;;13.20;2.10;;;;;;;-0.43;80.00;101248.33;111607;1260;22892;-74
2024/01/20 10:49:58;;;;;;;8.70;2.20;;;;;;;-0.40;80.05;101248.03;111603;1266;22394;-72
2024/01/20 10:52:50;;;;;;;17.10;3.20;;;;;;;-0.36;80.20;101249.95;111608;1263;22588;-72
2024/01/20 10:55:43;;;;;;;9.80;1.80;;;;;;;-0.32;79.86;101254.31;111622;1264;22923;-73
2024/01/20 10:58:39;;;;;;;14.80;2.60;;;;;;;-0.27;79.87;101248.77;111613;1263;22182;-72
2024/01/20 11:01:31;;;;;;;12.50;1.60;;;;;;;-0.23;79.55;101248.55;111628;1259;22203;-73
2024/01/20 11:04:22;;;;;;;14.50;2.30;;;;;;;-0.19;79.15;101250.08;111612;1260;22155;-72
2024/01/20 11:07:13;;;;;;;9.80;1.90;;;;;;;-0.16;78.79;101253.55;111619;1261;22322;-72
2024/01/20 11:10:03;;;;;;;;;;;;;;;-0.10;78.64;101241.91;111655;1261;22237;-73
2024/01/20 11:13:06;;;;;;;12.60;1.80;;;;;;;-0.08;79.28;101246.71;111441;1268;22991;-73
2024/01/20 11:15:58;;;;;;;10.00;1.40;;;;;;;-0.05;79.20;101244.61;111435;1268;22097;-72
2024/01/20 11:18:49;;;;;;;11.60;2.40;;;;;;;-0.02;79.38;101244.86;111439;1268;22177;-73
2024/01/20 11:21:40;;;;;;;17.90;2.20;;;;;;;0.01;79.33;101241.83;111446;1268;22226;-73
2024/01/20 11:24:39;;;;;;;;;;;;;;;0.05;79.17;101238.23;111641;1259;22353;-73
2024/01/20 11:27:30;;;;;;;16.50;3.40;;;;;;;0.08;79.37;101234.09;111478;1256;22198;-73
2024/01/20 11:30:34;;;;;;;12.30;2.40;;;;;;;0.12;78.89;101228.46;111616;1260;22366;-74
2024/01/20 11:33:25;;;;;;;11.00;2.20;;;;;;;0.17;78.69;101225.59;111602;1264;22116;-73
2024/01/20 11:36:16;;;;;;;14.40;2.90;;;;;;;0.20;78.56;101223.48;111620;1260;22327;-72
2024/01/20 11:39:07;;;;;;;13.50;2.40;;;;;;;0.24;78.42;101216.83;111627;1263;22219;-72
2024/01/20 11:42:03;;;;;;;;;;;;;;;0.26;77.95;101218.64;111638;1263;22307;-73
2024/01/20 11:44:54;;;;;;;13.70;2.40;;;;;;;0.28;78.30;101215.60;111608;1253;22198;-74
2024/01/20 11:47:45;;;;;;;12.30;2.30;;;;;;;0.29;77.90;101216.45;111629;1260;22352;-72
2024/01/20 11:50:36;;;;;;;11.90;2.00;;;;;;;0.34;78.02;101220.95;111626;1263;22976;-73
2024/01/20 11:53:25;;;;;;;;;;;;;;;0.37;77.79;101209.20;111630;1263;22332;-72
2024/01/20 11:56:17;;;;;;;15.10;3.20;;;;;;;0.38;77.31;101211.80;111608;1258;22236;-73
2024/01/20 11:59:08;;;;;;;14.10;2.40;;;;;;;0.41;77.32;101211.02;111631;1260;22377;-73
2024/01/20 12:01:58;;;;;;;13.00;2.00;;;;;;;0.43;77.31;101212.91;111614;1260;22128;-72
2024/01/20 12:04:50;;;;;;;14.70;2.80;;;;;;;0.45;77.05;101207.98;111616;1264;22620;-73
2024/01/20 12:07:42;;;;;;;17.70;2.70;;;;;;;0.47;76.87;101208.92;111629;1263;22289;-73
2024/01/20 12:10:36;;;;;;;15.20;2.50;;;;;;;0.49;76.77;101208.23;111635;1267;22215;-72
2024/01/20 12:13:32;;;;;;;14.80;2.30;;;;;;;0.52;76.72;101202.27;111590;1260;22125;-72
2024/01/20 12:16:24;;;;;;;12.90;2.20;;;;;;;0.55;76.40;101202.29;111590;1259;22170;-72
2024/01/20 12:19:14;;;;;;;11.90;1.70;;;;;;;0.59;76.35;101203.47;111567;1266;22500;-72
2024/01/20 12:22:05;;;;;;;11.20;1.80;;;;;;;0.61;76.57;101206.23;111640;1266;22131;-74
2024/01/20 12:24:56;;;;;;;12.50;1.80;;;;;;;0.63;76.85;101202.08;111473;1267;22179;-73
2024/01/20 12:27:51;;;;;;;10.60;2.00;;;;;;;0.68;76.57;101202.87;111485;1268;22091;-73
2024/01/20 12:30:42;;;;;;;11.30;1.80;;;;;;;0.71;76.78;101196.20;111479;1267;22232;-72
2024/01/20 12:33:33;;;;;;;11.00;2.30;;;;;;;0.75;76.58;101198.33;111626;1266;22257;-73
2024/01/20 12:36:24;;;;;;;15.20;1.70;;;;;;;0.80;76.52;101195.20;111598;1263;22162;-73
2024/01/20 12:39:15;;;;;;;32.60;8.70;;;;;;;0.83;76.46;101186.02;111481;1267;22369;-74
2024/01/20 12:42:06;;;;;;;12.30;2.10;;;;;;;0.85;76.52;101194.81;111609;1263;22855;-73
2024/01/20 12:44:57;;;;;;;11.50;2.00;;;;;;;0.87;76.20;101193.95;111629;1260;22178;-72
2024/01/20 12:47:49;;;;;;;9.40;1.50;;;;;;;0.87;76.45;101204.33;111623;1260;22863;-72
2024/01/20 12:50:40;;;;;;;9.60;1.60;;;;;;;0.88;76.16;101208.41;111628;1260;22195;-72
2024/01/20 12:53:32;;;;;;;10.00;1.60;;;;;;;0.88;75.68;101205.02;111623;1260;22815;-74
2024/01/20 12:56:22;;;;;;;10.30;1.90;;;;;;;0.90;76.06;101208.80;111617;1264;22978;-73
2024/01/20 12:59:13;;;;;;;8.90;1.30;;;;;;;0.90;76.41;101209.83;111641;1260;22165;-73
2024/01/20 13:02:04;;;;;;;6.90;1.50;;;;;;;0.89;76.29;101210.29;111620;1260;22855;-73
2024/01/20 13:04:55;;;;;;;13.40;2.20;;;;;;;0.90;76.49;101209.12;111606;1266;22204;-74
2024/01/20 13:07:46;;;;;;;8.10;1.50;;;;;;;0.89;76.27;101208.65;111596;1266;22174;-73